sensor_id;sensor_type;location;lat;lon;timestamp;pressure;altitude;pressure_sealevel;temperature;humidity
62122;BME280;48108;47.532;19.084;2024-02-21T04:56:43;69068.47;;;5.03;100.00
62122;BME280;48108;47.532;19.084;2024-02-21T04:59:47;69079.31;;;5.05;100.00
62122;BME280;48108;47.532;19.084;2024-02-21T05:02:50;69065.00;;;4.99;100.00
62122;BME280;48108;47.532;19.084;2024-02-21T05:05:53;69070.88;;;5.00;100.00
62122;BME280;48108;47.532;19.084;2024-02-21T05:08:56;69063.28;;;4.98;100.00
62122;BME280;48108;47.532;19.084;2024-02-21T05:12:00;69071.47;;;5.00;100.00
62122;BME280;48108;47.532;19.084;2024-02-21T05:15:03;69077.72;;;5.11;100.00
62122;BME280;48108;47.532;19.084;2024-02-21T05:18:06;69073.19;;;5.02;100.00
62122;BME280;48108;47.532;19.084;2024-02-21T05:21:09;69061.63;;;4.92;100.00
62122;BME280;48108;47.532;19.084;2024-02-21T05:24:12;69057.22;;;4.90;100.00
62122;BME280;48108;47.532;19.084;2024-02-21T05:27:15;69061.28;;;4.94;100.00
62122;BME280;48108;47.532;19.084;2024-02-21T05:30:18;69055.84;;;4.87;100.00
62122;BME280;48108;47.532;19.084;2024-02-21T05:33:21;69045.94;;;4.83;100.00
62122;BME280;48108;47.532;19.084;2024-02-21T05:36:24;69048.56;;;4.83;100.00
62122;BME280;48108;47.532;19.084;2024-02-21T05:39:27;69056.34;;;4.92;100.00
62122;BME280;48108;47.532;19.084;2024-02-21T05:42:32;69056.09;;;4.89;100.00
62122;BME280;48108;47.532;19.084;2024-02-21T05:45:35;69054.34;;;4.88;100.00
62122;BME280;48108;47.532;19.084;2024-02-21T05:48:38;69063.03;;;4.95;100.00
62122;BME280;48108;47.532;19.084;2024-02-21T05:51:41;69056.75;;;4.85;100.00
62122;BME280;48108;47.532;19.084;2024-02-21T05:54:44;69052.63;;;4.86;100.00
62122;BME280;48108;47.532;19.084;2024-02-21T05:57:49;69059.56;;;4.92;100.00
62122;BME280;48108;47.532;19.084;2024-02-21T06:00:52;69066.00;;;4.93;100.00
62122;BME280;48108;47.532;19.084;2024-02-21T06:03:57;69068.00;;;4.97;100.00
62122;BME280;48108;47.532;19.084;2024-02-21T06:07:00;69068.56;;;4.98;100.00
62122;BME280;48108;47.532;19.084;2024-02-21T06:10:03;69070.88;;;5.00;100.00
62122;BME280;48108;47.532;19.084;2024-02-21T06:13:06;69073.44;;;5.05;100.00
62122;BME280;48108;47.532;19.084;2024-02-21T06:16:10;69072.84;;;5.04;100.00
62122;BME280;48108;47.532;19.084;2024-02-21T06:19:12;69073.75;;;5.03;100.00
62122;BME280;48108;47.532;19.084;2024-02-21T06:22:16;69081.88;;;5.10;100.00
62122;BME280;48108;47.532;19.084;2024-02-21T06:25:22;69085.00;;;5.15;100.00
62122;BME280;48108;47.532;19.084;2024-02-21T06:28:25;69092.78;;;5.24;100.00
62122;BME280;48108;47.532;19.084;2024-02-21T06:31:28;69109.63;;;5.34;100.00
62122;BME280;48108;47.532;19.084;2024-02-21T06:34:31;69127.22;;;5.52;100.00
62122;BME280;48108;47.532;19.084;2024-02-21T06:37:36;69138.81;;;5.62;100.00
62122;BME280;48108;47.532;19.084;2024-02-21T06:40:42;69151.19;;;5.76;100.00
62122;BME280;48108;47.532;19.084;2024-02-21T06:43:51;69171.81;;;5.91;100.00
62122;BME280;48108;47.532;19.084;2024-02-21T06:46:54;69190.94;;;6.08;100.00
62122;BME280;48108;47.532;19.084;2024-02-21T06:49:57;69215.81;;;6.30;100.00
62122;BME280;48108;47.532;19.084;2024-02-21T06:53:00;69235.75;;;6.50;100.00
62122;BME280;48108;47.532;19.084;2024-02-21T06:56:03;69264.22;;;6.71;100.00
62122;BME280;48108;47.532;19.084;2024-02-21T06:59:06;69283.69;;;6.86;100.00
62122;BME280;48108;47.532;19.084;2024-02-21T07:02:09;69296.09;;;6.99;100.00
62122;BME280;48108;47.532;19.084;2024-02-21T07:05:12;69322.16;;;7.22;100.00
62122;BME280;48108;47.532;19.084;2024-02-21T07:08:15;69346.50;;;7.43;100.00
62122;BME280;48108;47.532;19.084;2024-02-21T07:11:18;69360.09;;;7.58;100.00
62122;BME280;48108;47.532;19.084;2024-02-21T07:14:21;69372.25;;;7.68;100.00
62122;BME280;48108;47.532;19.084;2024-02-21T07:17:24;69389.06;;;7.83;100.00
62122;BME280;48108;47.532;19.084;2024-02-21T07:20:27;69396.94;;;7.88;100.00
62122;BME280;48108;47.532;19.084;2024-02-21T07:23:30;69406.13;;;8.01;100.00
62122;BME280;48108;47.532;19.084;2024-02-21T07:26:33;69405.88;;;7.98;100.00
62122;BME280;48108;47.532;19.084;2024-02-21T07:29:36;69413.44;;;8.05;100.00
62122;BME280;48108;47.532;19.084;2024-02-21T07:32:39;69423.28;;;8.13;100.00
62122;BME280;48108;47.532;19.084;2024-02-21T07:35:42;69407.06;;;7.99;100.00
62122;BME280;48108;47.532;19.084;2024-02-21T07:38:47;69460.44;;;8.46;100.00
62122;BME280;48108;47.532;19.084;2024-02-21T07:41:53;69569.31;;;9.40;100.00
62122;BME280;48108;47.532;19.084;2024-02-21T07:44:56;69621.22;;;9.88;100.00
62122;BME280;48108;47.532;19.084;2024-02-21T07:47:59;69593.94;;;9.64;100.00
62122;BME280;48108;47.532;19.084;2024-02-21T07:51:02;69549.00;;;9.22;100.00
62122;BME280;48108;47.532;19.084;2024-02-21T07:54:05;69536.09;;;9.15;100.00
62122;BME280;48108;47.532;19.084;2024-02-21T07:57:10;69520.19;;;8.99;100.00
62122;BME280;48108;47.532;19.084;2024-02-21T08:00:13;69530.31;;;9.10;100.00
62122;BME280;48108;47.532;19.084;2024-02-21T08:03:22;69570.38;;;9.45;100.00
62122;BME280;48108;47.532;19.084;2024-02-21T08:06:25;69628.56;;;9.92;100.00
62122;BME280;48108;47.532;19.084;2024-02-21T08:09:28;69622.97;;;9.89;100.00
62122;BME280;48108;47.532;19.084;2024-02-21T08:12:31;69625.66;;;9.89;100.00
62122;BME280;48108;47.532;19.084;2024-02-21T08:15:35;69604.38;;;9.73;100.00
62122;BME280;48108;47.532;19.084;2024-02-21T08:18:38;69575.34;;;9.47;100.00
62122;BME280;48108;47.532;19.084;2024-02-21T08:21:41;69600.66;;;9.67;100.00
62122;BME280;48108;47.532;19.084;2024-02-21T08:24:44;69604.50;;;9.68;100.00
62122;BME280;48108;47.532;19.084;2024-02-21T08:27:47;69604.16;;;9.70;100.00
62122;BME280;48108;47.532;19.084;2024-02-21T08:30:52;69618.06;;;9.83;100.00
62122;BME280;48108;47.532;19.084;2024-02-21T08:33:55;69597.41;;;9.67;100.00
62122;BME280;48108;47.532;19.084;2024-02-21T08:37:01;69607.75;;;9.81;100.00
62122;BME280;48108;47.532;19.084;2024-02-21T08:40:04;69611.34;;;9.79;100.00
62122;BME280;48108;47.532;19.084;2024-02-21T08:43:11;69613.44;;;9.79;100.00
62122;BME280;48108;47.532;19.084;2024-02-21T08:46:14;69597.75;;;9.65;100.00
62122;BME280;48108;47.532;19.084;2024-02-21T08:49:17;69602.28;;;9.73;100.00
62122;BME280;48108;47.532;19.084;2024-02-21T08:52:20;69628.78;;;9.94;100.00
62122;BME280;48108;47.532;19.084;2024-02-21T08:55:23;69637.84;;;10.00;100.00
62122;BME280;48108;47.532;19.084;2024-02-21T08:58:47;69636.91;;;10.02;100.00
62122;BME280;48108;47.532;19.084;2024-02-21T09:01:51;69641.69;;;10.01;100.00
62122;BME280;48108;47.532;19.084;2024-02-21T09:04:55;69657.81;;;10.20;100.00
62122;BME280;48108;47.532;19.084;2024-02-21T09:07:58;69681.66;;;10.41;100.00
62122;BME280;48108;47.532;19.084;2024-02-21T09:11:01;69703.19;;;10.60;100.00
62122;BME280;48108;47.532;19.084;2024-02-21T09:14:04;69704.09;;;10.58;100.00
62122;BME280;48108;47.532;19.084;2024-02-21T09:17:07;69712.81;;;10.66;100.00
62122;BME280;48108;47.532;19.084;2024-02-21T09:20:11;69706.44;;;10.60;100.00
62122;BME280;48108;47.532;19.084;2024-02-21T09:23:15;69691.34;;;10.47;100.00
62122;BME280;48108;47.532;19.084;2024-02-21T09:26:18;69704.09;;;10.58;100.00
62122;BME280;48108;47.532;19.084;2024-02-21T09:29:21;69707.94;;;10.59;100.00
62122;BME280;48108;47.532;19.084;2024-02-21T09:32:29;69711.44;;;10.62;100.00
62122;BME280;48108;47.532;19.084;2024-02-21T09:35:32;69691.91;;;10.48;100.00
62122;BME280;48108;47.532;19.084;2024-02-21T09:38:36;69684.34;;;10.41;100.00
62122;BME280;48108;47.532;19.084;2024-02-21T09:41:44;69705.50;;;10.62;100.00
62122;BME280;48108;47.532;19.084;2024-02-21T09:44:50;69714.56;;;10.67;100.00
62122;BME280;48108;47.532;19.084;2024-02-21T09:51:11;69731.66;;;10.85;99.99
62122;BME280;48108;47.532;19.084;2024-02-21T09:54:16;69730.16;;;10.86;98.31
62122;BME280;48108;47.532;19.084;2024-02-21T09:57:22;69735.50;;;10.86;97.61
62122;BME280;48108;47.532;19.084;2024-02-21T10:00:25;69730.50;;;10.84;94.72
62122;BME280;48108;47.532;19.084;2024-02-21T10:03:28;69728.16;;;10.82;94.15
62122;BME280;48108;47.532;19.084;2024-02-21T10:06:32;69746.78;;;10.98;91.04
62122;BME280;48108;47.532;19.084;2024-02-21T10:09:35;69775.97;;;11.19;88.99
62122;BME280;48108;47.532;19.084;2024-02-21T10:12:51;69807.84;;;11.52;85.23
62122;BME280;48108;47.532;19.084;2024-02-21T10:16:07;69854.97;;;11.93;81.82
62122;BME280;48108;47.532;19.084;2024-02-21T10:19:19;69867.78;;;12.05;82.19
62122;BME280;48108;47.532;19.084;2024-02-21T10:22:23;69916.78;;;12.43;77.30
62122;BME280;48108;47.532;19.084;2024-02-21T10:25:28;69928.91;;;12.58;76.05
62122;BME280;48108;47.532;19.084;2024-02-21T10:28:31;70002.63;;;13.21;74.44
62122;BME280;48108;47.532;19.084;2024-02-21T10:31:33;70006.69;;;13.24;69.03
62122;BME280;48108;47.532;19.084;2024-02-21T10:34:37;70005.22;;;13.25;69.10
62122;BME280;48108;47.532;19.084;2024-02-21T10:37:41;70015.69;;;13.34;68.26
62122;BME280;48108;47.532;19.084;2024-02-21T10:40:44;69962.44;;;12.85;70.19
62122;BME280;48108;47.532;19.084;2024-02-21T10:43:53;69927.16;;;12.57;72.56
62122;BME280;48108;47.532;19.084;2024-02-21T10:46:58;69938.34;;;12.62;71.70
62122;BME280;48108;47.532;19.084;2024-02-21T10:50:04;69895.16;;;12.29;72.92
62122;BME280;48108;47.532;19.084;2024-02-21T10:53:45;69897.47;;;12.31;74.96
62122;BME280;48108;47.532;19.084;2024-02-21T10:56:49;69871.88;;;12.08;74.10
62122;BME280;48108;47.532;19.084;2024-02-21T10:59:55;69890.81;;;12.22;74.73
62122;BME280;48108;47.532;19.084;2024-02-21T11:02:59;69896.06;;;12.27;73.41
62122;BME280;48108;47.532;19.084;2024-02-21T11:06:03;69912.13;;;12.39;72.36
62122;BME280;48108;47.532;19.084;2024-02-21T11:09:09;69901.53;;;12.34;71.08
62122;BME280;48108;47.532;19.084;2024-02-21T11:12:20;69897.69;;;12.33;71.01
62122;BME280;48108;47.532;19.084;2024-02-21T11:15:26;69939.88;;;12.61;70.35
62122;BME280;48108;47.532;19.084;2024-02-21T11:18:30;70000.66;;;13.16;67.60
62122;BME280;48108;47.532;19.084;2024-02-21T11:21:34;70015.69;;;13.34;65.20
62122;BME280;48108;47.532;19.084;2024-02-21T11:24:38;70004.97;;;13.23;65.56
62122;BME280;48108;47.532;19.084;2024-02-21T11:27:47;69961.06;;;12.82;68.67
62122;BME280;48108;47.532;19.084;2024-02-21T11:30:49;69909.81;;;12.37;67.76
62122;BME280;48108;47.532;19.084;2024-02-21T11:33:53;69875.13;;;12.09;69.97
62122;BME280;48108;47.532;19.084;2024-02-21T11:36:57;69884.66;;;12.19;70.64
62122;BME280;48108;47.532;19.084;2024-02-21T11:40:00;69959.28;;;12.80;66.57
62122;BME280;48108;47.532;19.084;2024-02-21T11:43:04;70089.69;;;13.99;62.12
62122;BME280;48108;47.532;19.084;2024-02-21T11:46:06;70112.22;;;14.17;59.46
62122;BME280;48108;47.532;19.084;2024-02-21T11:49:09;70199.47;;;14.91;56.49
62122;BME280;48108;47.532;19.084;2024-02-21T11:52:12;70294.84;;;15.77;55.43
62122;BME280;48108;47.532;19.084;2024-02-21T11:55:18;70360.81;;;16.35;52.58
62122;BME280;48108;47.532;19.084;2024-02-21T11:58:21;70483.28;;;17.39;48.61
62122;BME280;48108;47.532;19.084;2024-02-21T12:01:24;70385.13;;;16.53;48.85
62122;BME280;48108;47.532;19.084;2024-02-21T12:04:27;70243.22;;;15.29;52.52
62122;BME280;48108;47.532;19.084;2024-02-21T12:07:31;70133.53;;;14.33;55.49
62122;BME280;48108;47.532;19.084;2024-02-21T12:10:35;70041.69;;;13.55;58.43
62122;BME280;48108;47.532;19.084;2024-02-21T12:13:38;69993.06;;;13.10;61.51
62122;BME280;48108;47.532;19.084;2024-02-21T12:16:41;69988.66;;;13.08;60.70
62122;BME280;48108;47.532;19.084;2024-02-21T12:19:44;69979.91;;;13.01;61.23
62122;BME280;48108;47.532;19.084;2024-02-21T12:22:49;69965.69;;;12.86;61.83
62122;BME280;48108;47.532;19.084;2024-02-21T12:25:52;69936.22;;;12.62;61.27
62122;BME280;48108;47.532;19.084;2024-02-21T12:28:59;69939.16;;;12.65;61.42
62122;BME280;48108;47.532;19.084;2024-02-21T12:32:01;69896.53;;;12.32;61.11
62122;BME280;48108;47.532;19.084;2024-02-21T12:35:07;69874.53;;;12.08;61.59
62122;BME280;48108;47.532;19.084;2024-02-21T12:38:10;69860.31;;;11.93;61.62
62122;BME280;48108;47.532;19.084;2024-02-21T12:41:15;69848.34;;;11.85;62.13
62122;BME280;48108;47.532;19.084;2024-02-21T12:44:18;69859.97;;;11.95;61.79
62122;BME280;48108;47.532;19.084;2024-02-21T12:47:21;69866.63;;;12.03;62.01
62122;BME280;48108;47.532;19.084;2024-02-21T12:50:26;69882.69;;;12.15;61.69
62122;BME280;48108;47.532;19.084;2024-02-21T12:53:29;69882.91;;;12.18;62.43
62122;BME280;48108;47.532;19.084;2024-02-21T12:56:35;69883.25;;;12.16;62.83
62122;BME280;48108;47.532;19.084;2024-02-21T12:59:38;69882.69;;;12.15;61.13
62122;BME280;48108;47.532;19.084;2024-02-21T13:02:41;69902.25;;;12.30;60.48
62122;BME280;48108;47.532;19.084;2024-02-21T13:05:45;69921.69;;;12.50;60.74
62122;BME280;48108;47.532;19.084;2024-02-21T13:08:48;69914.09;;;12.43;59.58
62122;BME280;48108;47.532;19.084;2024-02-21T13:11:51;69904.22;;;12.34;59.72
62122;BME280;48108;47.532;19.084;2024-02-21T13:14:54;69904.00;;;12.32;60.26
62122;BME280;48108;47.532;19.084;2024-02-21T13:17:57;69899.91;;;12.28;61.10
62122;BME280;48108;47.532;19.084;2024-02-21T13:21:01;69896.88;;;12.30;60.92
62122;BME280;48108;47.532;19.084;2024-02-21T13:24:04;69886.75;;;12.19;60.32
62122;BME280;48108;47.532;19.084;2024-02-21T13:27:07;69869.63;;;12.01;61.01
62122;BME280;48108;47.532;19.084;2024-02-21T13:30:10;69869.88;;;12.04;60.24
62122;BME280;48108;47.532;19.084;2024-02-21T13:33:13;69876.28;;;12.10;59.91
62122;BME280;48108;47.532;19.084;2024-02-21T13:36:16;69883.25;;;12.16;59.76
62122;BME280;48108;47.532;19.084;2024-02-21T13:39:19;69896.31;;;12.30;60.20
62122;BME280;48108;47.532;19.084;2024-02-21T13:42:22;69902.94;;;12.38;58.76
62122;BME280;48108;47.532;19.084;2024-02-21T13:45:26;69942.28;;;12.70;57.60
62122;BME280;48108;47.532;19.084;2024-02-21T13:48:29;70010.22;;;13.27;56.48
62122;BME280;48108;47.532;19.084;2024-02-21T13:51:33;70066.72;;;13.77;54.58
62122;BME280;48108;47.532;19.084;2024-02-21T13:54:38;70071.19;;;13.78;53.30
62122;BME280;48108;47.532;19.084;2024-02-21T13:57:41;69997.38;;;13.16;52.08
62122;BME280;48108;47.532;19.084;2024-02-21T14:00:44;69976.19;;;12.95;52.46
62122;BME280;48108;47.532;19.084;2024-02-21T14:03:47;69987.25;;;13.05;53.73
62122;BME280;48108;47.532;19.084;2024-02-21T14:06:50;69976.19;;;12.95;52.59
62122;BME280;48108;47.532;19.084;2024-02-21T14:09:54;69977.22;;;13.01;53.54
62122;BME280;48108;47.532;19.084;2024-02-21T14:12:57;69980.13;;;13.03;53.18
62122;BME280;48108;47.532;19.084;2024-02-21T14:16:00;69991.00;;;13.10;52.69
62122;BME280;48108;47.532;19.084;2024-02-21T14:19:03;69995.63;;;13.14;52.09
62122;BME280;48108;47.532;19.084;2024-02-21T14:22:06;70011.97;;;13.29;53.13
62122;BME280;48108;47.532;19.084;2024-02-21T14:25:09;70012.91;;;13.27;53.30
62122;BME280;48108;47.532;19.084;2024-02-21T14:28:12;70005.31;;;13.21;52.75
62122;BME280;48108;47.532;19.084;2024-02-21T14:31:14;70008.47;;;13.26;52.15
62122;BME280;48108;47.532;19.084;2024-02-21T14:34:19;69991.56;;;13.11;51.95
62122;BME280;48108;47.532;19.084;2024-02-21T14:37:22;69960.69;;;12.84;52.36
62122;BME280;48108;47.532;19.084;2024-02-21T14:40:25;69924.38;;;12.50;52.64
62122;BME280;48108;47.532;19.084;2024-02-21T14:43:28;69897.22;;;12.28;54.31
62122;BME280;48108;47.532;19.084;2024-02-21T14:46:32;69873.59;;;12.10;55.35
62122;BME280;48108;47.532;19.084;2024-02-21T14:49:35;69884.06;;;12.19;54.90
62122;BME280;48108;47.532;19.084;2024-02-21T14:52:39;69864.28;;;12.01;55.79
62122;BME280;48108;47.532;19.084;2024-02-21T14:55:42;69885.03;;;12.17;55.29
62122;BME280;48108;47.532;19.084;2024-02-21T14:58:45;69890.47;;;12.24;55.73
62122;BME280;48108;47.532;19.084;2024-02-21T15:01:52;69901.31;;;12.32;56.33
62122;BME280;48108;47.532;19.084;2024-02-21T15:04:55;69897.22;;;12.28;55.50
62122;BME280;48108;47.532;19.084;2024-02-21T15:07:59;69884.78;;;12.15;55.19
62122;BME280;48108;47.532;19.084;2024-02-21T15:11:02;69878.84;;;12.14;55.35
62122;BME280;48108;47.532;19.084;2024-02-21T15:14:06;69877.09;;;12.13;54.58
62122;BME280;48108;47.532;19.084;2024-02-21T15:17:11;69876.28;;;12.10;54.69
62122;BME280;48108;47.532;19.084;2024-02-21T15:20:14;69866.63;;;12.03;54.94
62122;BME280;48108;47.532;19.084;2024-02-21T15:23:17;69873.13;;;12.05;54.44
62122;BME280;48108;47.532;19.084;2024-02-21T15:26:22;69870.81;;;12.02;54.33
62122;BME280;48108;47.532;19.084;2024-02-21T15:29:25;69870.22;;;12.02;55.25
62122;BME280;48108;47.532;19.084;2024-02-21T15:32:29;69866.84;;;12.06;54.08
62122;BME280;48108;47.532;19.084;2024-02-21T15:35:32;69846.84;;;11.86;54.45
62122;BME280;48108;47.532;19.084;2024-02-21T15:38:36;69842.50;;;11.80;55.28
62122;BME280;48108;47.532;19.084;2024-02-21T15:41:39;69822.72;;;11.63;55.21
62122;BME280;48108;47.532;19.084;2024-02-21T15:44:42;69811.09;;;11.52;55.77
62122;BME280;48108;47.532;19.084;2024-02-21T15:47:45;69798.31;;;11.41;56.41
62122;BME280;48108;47.532;19.084;2024-02-21T15:50:48;69781.44;;;11.26;56.88
62122;BME280;48108;47.532;19.084;2024-02-21T15:53:51;69766.88;;;11.13;58.13
62122;BME280;48108;47.532;19.084;2024-02-21T15:56:55;69756.09;;;11.06;59.47
62122;BME280;48108;47.532;19.084;2024-02-21T15:59:59;69751.41;;;11.02;58.41
62122;BME280;48108;47.532;19.084;2024-02-21T16:03:02;69748.88;;;10.98;59.03
62122;BME280;48108;47.532;19.084;2024-02-21T16:06:07;69758.53;;;11.04;58.25
62122;BME280;48108;47.532;19.084;2024-02-21T16:09:10;69746.78;;;10.98;57.99
62122;BME280;48108;47.532;19.084;2024-02-21T16:12:13;69741.66;;;10.89;58.61
62122;BME280;48108;47.532;19.084;2024-02-21T16:15:17;69732.25;;;10.85;58.68
62122;BME280;48108;47.532;19.084;2024-02-21T16:18:20;69711.88;;;10.67;60.57
62122;BME280;48108;47.532;19.084;2024-02-21T16:21:26;69699.13;;;10.56;60.67
62122;BME280;48108;47.532;19.084;2024-02-21T16:24:30;69692.47;;;10.48;62.00
62122;BME280;48108;47.532;19.084;2024-02-21T16:27:34;69688.53;;;10.40;62.62
62122;BME280;48108;47.532;19.084;2024-02-21T16:30:37;69682.84;;;10.42;61.05
62122;BME280;48108;47.532;19.084;2024-02-21T16:33:39;69678.78;;;10.38;61.36
62122;BME280;48108;47.532;19.084;2024-02-21T16:36:43;69675.06;;;10.33;63.43
62122;BME280;48108;47.532;19.084;2024-02-21T16:39:46;69668.16;;;10.22;66.18
62122;BME280;48108;47.532;19.084;2024-02-21T16:42:49;69650.84;;;10.14;66.18
62122;BME280;48108;47.532;19.084;2024-02-21T16:45:53;69643.06;;;10.05;65.46
62122;BME280;48108;47.532;19.084;2024-02-21T16:48:56;69655.84;;;10.16;64.42
62122;BME280;48108;47.532;19.084;2024-02-21T16:51:58;69646.78;;;10.10;65.25
62122;BME280;48108;47.532;19.084;2024-02-21T16:55:01;69655.63;;;10.13;63.47
62122;BME280;48108;47.532;19.084;2024-02-21T16:58:05;69652.38;;;10.13;63.73
